sensor_id;sensor_type;location;lat;lon;timestamp;P1;durP1;ratioP1;P2;durP2;ratioP2
4704;SDS011;2366;51.332;6.610;2024-01-10T00:00:03;8.90;;;5.73;;
4704;SDS011;2366;51.332;6.610;2024-01-10T00:02:29;13.82;;;7.15;;
4704;SDS011;2366;51.332;6.610;2024-01-10T00:04:54;10.77;;;6.77;;
4704;SDS011;2366;51.332;6.610;2024-01-10T00:07:20;12.63;;;6.40;;
4704;SDS011;2366;51.332;6.610;2024-01-10T00:09:45;12.80;;;7.03;;
4704;SDS011;2366;51.332;6.610;2024-01-10T00:12:11;15.67;;;7.23;;
4704;SDS011;2366;51.332;6.610;2024-01-10T00:14:36;15.83;;;7.73;;
4704;SDS011;2366;51.332;6.610;2024-01-10T00:17:02;9.90;;;6.00;;
4704;SDS011;2366;51.332;6.610;2024-01-10T00:19:27;12.10;;;5.90;;
4704;SDS011;2366;51.332;6.610;2024-01-10T00:21:52;21.17;;;6.97;;
4704;SDS011;2366;51.332;6.610;2024-01-10T00:24:18;12.67;;;7.20;;
4704;SDS011;2366;51.332;6.610;2024-01-10T00:26:43;11.60;;;6.33;;
4704;SDS011;2366;51.332;6.610;2024-01-10T00:29:09;12.43;;;6.63;;
4704;SDS011;2366;51.332;6.610;2024-01-10T00:31:34;11.98;;;6.57;;
4704;SDS011;2366;51.332;6.610;2024-01-10T00:34:00;12.60;;;6.30;;
4704;SDS011;2366;51.332;6.610;2024-01-10T00:36:25;14.10;;;7.30;;
4704;SDS011;2366;51.332;6.610;2024-01-10T00:38:51;9.88;;;6.00;;
4704;SDS011;2366;51.332;6.610;2024-01-10T00:41:16;15.10;;;7.70;;
4704;SDS011;2366;51.332;6.610;2024-01-10T00:43:42;15.47;;;6.80;;
4704;SDS011;2366;51.332;6.610;2024-01-10T00:46:08;11.37;;;6.70;;
4704;SDS011;2366;51.332;6.610;2024-01-10T00:48:33;11.30;;;6.73;;
4704;SDS011;2366;51.332;6.610;2024-01-10T00:50:59;8.80;;;5.40;;
4704;SDS011;2366;51.332;6.610;2024-01-10T00:53:24;12.50;;;6.80;;
4704;SDS011;2366;51.332;6.610;2024-01-10T00:55:50;7.63;;;6.05;;
4704;SDS011;2366;51.332;6.610;2024-01-10T00:58:16;9.70;;;5.97;;
4704;SDS011;2366;51.332;6.610;2024-01-10T01:00:41;9.50;;;6.03;;
4704;SDS011;2366;51.332;6.610;2024-01-10T01:03:07;10.07;;;6.70;;
4704;SDS011;2366;51.332;6.610;2024-01-10T01:05:32;10.40;;;5.80;;
4704;SDS011;2366;51.332;6.610;2024-01-10T01:07:58;11.63;;;7.00;;
4704;SDS011;2366;51.332;6.610;2024-01-10T01:10:23;12.13;;;7.43;;
4704;SDS011;2366;51.332;6.610;2024-01-10T01:12:48;10.97;;;6.10;;
4704;SDS011;2366;51.332;6.610;2024-01-10T01:15:14;12.60;;;6.10;;
4704;SDS011;2366;51.332;6.610;2024-01-10T01:17:39;9.57;;;5.53;;
4704;SDS011;2366;51.332;6.610;2024-01-10T01:20:05;14.57;;;6.60;;
4704;SDS011;2366;51.332;6.610;2024-01-10T01:22:31;14.05;;;6.28;;
4704;SDS011;2366;51.332;6.610;2024-01-10T01:24:56;12.00;;;6.57;;
4704;SDS011;2366;51.332;6.610;2024-01-10T01:27:22;15.53;;;6.10;;
4704;SDS011;2366;51.332;6.610;2024-01-10T01:29:48;11.65;;;6.90;;
4704;SDS011;2366;51.332;6.610;2024-01-10T01:32:14;14.30;;;7.07;;
4704;SDS011;2366;51.332;6.610;2024-01-10T01:34:39;14.70;;;6.87;;
4704;SDS011;2366;51.332;6.610;2024-01-10T01:37:05;10.30;;;6.17;;
4704;SDS011;2366;51.332;6.610;2024-01-10T01:39:30;12.80;;;6.60;;
4704;SDS011;2366;51.332;6.610;2024-01-10T01:41:55;17.57;;;7.20;;
4704;SDS011;2366;51.332;6.610;2024-01-10T01:44:21;16.07;;;6.63;;
4704;SDS011;2366;51.332;6.610;2024-01-10T01:46:47;14.53;;;8.40;;
4704;SDS011;2366;51.332;6.610;2024-01-10T01:49:14;11.17;;;7.00;;
4704;SDS011;2366;51.332;6.610;2024-01-10T01:51:40;12.95;;;7.00;;
4704;SDS011;2366;51.332;6.610;2024-01-10T01:54:06;21.47;;;8.47;;
4704;SDS011;2366;51.332;6.610;2024-01-10T01:56:35;18.52;;;7.15;;
4704;SDS011;2366;51.332;6.610;2024-01-10T01:59:02;18.38;;;7.07;;
4704;SDS011;2366;51.332;6.610;2024-01-10T02:01:28;11.23;;;6.43;;
4704;SDS011;2366;51.332;6.610;2024-01-10T02:03:54;10.80;;;6.23;;
4704;SDS011;2366;51.332;6.610;2024-01-10T02:06:20;15.70;;;7.43;;
4704;SDS011;2366;51.332;6.610;2024-01-10T02:08:45;13.63;;;6.80;;
4704;SDS011;2366;51.332;6.610;2024-01-10T02:11:11;11.67;;;6.10;;
4704;SDS011;2366;51.332;6.610;2024-01-10T02:13:37;11.45;;;6.43;;
4704;SDS011;2366;51.332;6.610;2024-01-10T02:16:03;8.30;;;5.10;;
4704;SDS011;2366;51.332;6.610;2024-01-10T02:18:30;18.83;;;6.50;;
4704;SDS011;2366;51.332;6.610;2024-01-10T02:20:56;12.85;;;6.22;;
4704;SDS011;2366;51.332;6.610;2024-01-10T02:23:21;16.73;;;6.10;;
4704;SDS011;2366;51.332;6.610;2024-01-10T02:25:46;8.43;;;5.13;;
4704;SDS011;2366;51.332;6.610;2024-01-10T02:28:12;15.00;;;6.27;;
4704;SDS011;2366;51.332;6.610;2024-01-10T02:30:37;10.70;;;4.97;;
4704;SDS011;2366;51.332;6.610;2024-01-10T02:33:03;9.23;;;5.00;;
4704;SDS011;2366;51.332;6.610;2024-01-10T02:35:29;11.15;;;5.82;;
4704;SDS011;2366;51.332;6.610;2024-01-10T02:37:57;10.48;;;5.07;;
4704;SDS011;2366;51.332;6.610;2024-01-10T02:40:23;9.32;;;5.38;;
4704;SDS011;2366;51.332;6.610;2024-01-10T02:42:49;8.80;;;4.97;;
4704;SDS011;2366;51.332;6.610;2024-01-10T02:45:16;10.43;;;5.80;;
4704;SDS011;2366;51.332;6.610;2024-01-10T02:47:41;10.87;;;5.60;;
4704;SDS011;2366;51.332;6.610;2024-01-10T02:50:07;9.10;;;5.30;;
4704;SDS011;2366;51.332;6.610;2024-01-10T02:52:32;8.77;;;6.13;;
4704;SDS011;2366;51.332;6.610;2024-01-10T02:54:58;11.10;;;5.93;;
4704;SDS011;2366;51.332;6.610;2024-01-10T02:57:23;10.20;;;6.23;;
4704;SDS011;2366;51.332;6.610;2024-01-10T02:59:49;10.80;;;5.43;;
4704;SDS011;2366;51.332;6.610;2024-01-10T03:02:14;14.03;;;5.10;;
4704;SDS011;2366;51.332;6.610;2024-01-10T03:04:40;9.63;;;6.30;;
4704;SDS011;2366;51.332;6.610;2024-01-10T03:07:06;7.47;;;5.80;;
4704;SDS011;2366;51.332;6.610;2024-01-10T03:09:32;8.67;;;4.73;;
4704;SDS011;2366;51.332;6.610;2024-01-10T03:11:57;9.10;;;5.97;;
4704;SDS011;2366;51.332;6.610;2024-01-10T03:14:22;10.90;;;6.27;;
4704;SDS011;2366;51.332;6.610;2024-01-10T03:16:48;12.00;;;6.90;;
4704;SDS011;2366;51.332;6.610;2024-01-10T03:19:13;8.47;;;5.13;;
4704;SDS011;2366;51.332;6.610;2024-01-10T03:21:39;7.17;;;5.40;;
4704;SDS011;2366;51.332;6.610;2024-01-10T03:24:05;13.83;;;6.50;;
4704;SDS011;2366;51.332;6.610;2024-01-10T03:26:30;9.57;;;5.70;;
4704;SDS011;2366;51.332;6.610;2024-01-10T03:28:56;10.53;;;6.00;;
4704;SDS011;2366;51.332;6.610;2024-01-10T03:31:22;10.25;;;7.47;;
4704;SDS011;2366;51.332;6.610;2024-01-10T03:33:47;12.00;;;5.83;;
4704;SDS011;2366;51.332;6.610;2024-01-10T03:36:15;14.68;;;5.65;;
4704;SDS011;2366;51.332;6.610;2024-01-10T03:38:42;9.45;;;6.00;;
4704;SDS011;2366;51.332;6.610;2024-01-10T03:41:15;7.28;;;4.70;;
4704;SDS011;2366;51.332;6.610;2024-01-10T03:43:41;10.95;;;6.38;;
4704;SDS011;2366;51.332;6.610;2024-01-10T03:46:07;12.70;;;6.40;;
4704;SDS011;2366;51.332;6.610;2024-01-10T03:48:33;19.13;;;7.32;;
4704;SDS011;2366;51.332;6.610;2024-01-10T03:50:59;11.37;;;5.77;;
4704;SDS011;2366;51.332;6.610;2024-01-10T03:53:24;14.30;;;6.80;;
4704;SDS011;2366;51.332;6.610;2024-01-10T03:55:49;11.67;;;6.33;;
4704;SDS011;2366;51.332;6.610;2024-01-10T03:58:15;12.97;;;6.97;;
4704;SDS011;2366;51.332;6.610;2024-01-10T04:00:40;15.40;;;6.57;;
4704;SDS011;2366;51.332;6.610;2024-01-10T04:03:05;11.73;;;6.40;;
4704;SDS011;2366;51.332;6.610;2024-01-10T04:05:31;14.67;;;6.63;;
4704;SDS011;2366;51.332;6.610;2024-01-10T04:07:56;9.43;;;6.70;;
4704;SDS011;2366;51.332;6.610;2024-01-10T04:10:22;17.37;;;8.03;;
4704;SDS011;2366;51.332;6.610;2024-01-10T04:12:47;11.20;;;6.83;;
4704;SDS011;2366;51.332;6.610;2024-01-10T04:15:13;10.83;;;6.70;;
4704;SDS011;2366;51.332;6.610;2024-01-10T04:17:39;13.07;;;7.70;;
4704;SDS011;2366;51.332;6.610;2024-01-10T04:20:04;12.03;;;5.73;;
4704;SDS011;2366;51.332;6.610;2024-01-10T04:22:30;10.98;;;6.68;;
4704;SDS011;2366;51.332;6.610;2024-01-10T04:25:00;14.83;;;7.33;;
4704;SDS011;2366;51.332;6.610;2024-01-10T04:27:27;16.85;;;7.38;;
4704;SDS011;2366;51.332;6.610;2024-01-10T04:29:53;13.85;;;6.45;;
4704;SDS011;2366;51.332;6.610;2024-01-10T04:32:18;15.27;;;7.00;;
4704;SDS011;2366;51.332;6.610;2024-01-10T04:34:44;12.67;;;7.47;;
4704;SDS011;2366;51.332;6.610;2024-01-10T04:37:09;11.03;;;5.50;;
4704;SDS011;2366;51.332;6.610;2024-01-10T04:39:35;8.60;;;6.83;;
4704;SDS011;2366;51.332;6.610;2024-01-10T04:42:01;16.43;;;6.53;;
4704;SDS011;2366;51.332;6.610;2024-01-10T04:44:26;12.05;;;6.60;;
4704;SDS011;2366;51.332;6.610;2024-01-10T04:46:52;10.93;;;7.10;;
4704;SDS011;2366;51.332;6.610;2024-01-10T04:49:17;14.50;;;8.47;;
4704;SDS011;2366;51.332;6.610;2024-01-10T04:51:43;14.87;;;9.20;;
4704;SDS011;2366;51.332;6.610;2024-01-10T04:54:08;14.13;;;7.40;;
4704;SDS011;2366;51.332;6.610;2024-01-10T04:56:34;11.02;;;7.00;;
4704;SDS011;2366;51.332;6.610;2024-01-10T04:59:01;14.02;;;6.85;;
4704;SDS011;2366;51.332;6.610;2024-01-10T05:01:27;9.30;;;5.67;;
4704;SDS011;2366;51.332;6.610;2024-01-10T05:03:52;9.50;;;6.70;;
4704;SDS011;2366;51.332;6.610;2024-01-10T05:06:18;9.50;;;5.57;;
4704;SDS011;2366;51.332;6.610;2024-01-10T05:08:43;10.37;;;7.33;;
4704;SDS011;2366;51.332;6.610;2024-01-10T05:11:08;11.87;;;5.73;;
4704;SDS011;2366;51.332;6.610;2024-01-10T05:13:34;12.07;;;6.53;;
4704;SDS011;2366;51.332;6.610;2024-01-10T05:16:00;8.20;;;6.13;;
4704;SDS011;2366;51.332;6.610;2024-01-10T05:18:25;13.30;;;7.57;;
4704;SDS011;2366;51.332;6.610;2024-01-10T05:20:50;13.10;;;6.90;;
4704;SDS011;2366;51.332;6.610;2024-01-10T05:23:16;11.60;;;7.03;;
4704;SDS011;2366;51.332;6.610;2024-01-10T05:25:41;10.97;;;7.30;;
4704;SDS011;2366;51.332;6.610;2024-01-10T05:28:07;15.60;;;8.13;;
4704;SDS011;2366;51.332;6.610;2024-01-10T05:30:33;13.37;;;6.97;;
4704;SDS011;2366;51.332;6.610;2024-01-10T05:32:58;15.60;;;7.60;;
4704;SDS011;2366;51.332;6.610;2024-01-10T05:35:24;9.70;;;6.20;;
4704;SDS011;2366;51.332;6.610;2024-01-10T05:37:53;11.63;;;6.63;;
4704;SDS011;2366;51.332;6.610;2024-01-10T05:40:19;10.30;;;7.10;;
4704;SDS011;2366;51.332;6.610;2024-01-10T05:42:45;16.13;;;7.80;;
4704;SDS011;2366;51.332;6.610;2024-01-10T05:45:10;10.70;;;7.00;;
4704;SDS011;2366;51.332;6.610;2024-01-10T05:47:35;10.80;;;6.60;;
4704;SDS011;2366;51.332;6.610;2024-01-10T05:50:02;15.30;;;8.35;;
4704;SDS011;2366;51.332;6.610;2024-01-10T05:52:31;10.43;;;7.00;;
4704;SDS011;2366;51.332;6.610;2024-01-10T05:54:57;12.95;;;7.25;;
4704;SDS011;2366;51.332;6.610;2024-01-10T05:57:22;13.87;;;8.13;;
4704;SDS011;2366;51.332;6.610;2024-01-10T05:59:48;11.47;;;7.27;;
4704;SDS011;2366;51.332;6.610;2024-01-10T06:02:13;14.80;;;7.40;;
4704;SDS011;2366;51.332;6.610;2024-01-10T06:04:41;18.85;;;6.80;;
4704;SDS011;2366;51.332;6.610;2024-01-10T06:07:07;13.37;;;6.47;;
4704;SDS011;2366;51.332;6.610;2024-01-10T06:09:32;11.77;;;6.90;;
4704;SDS011;2366;51.332;6.610;2024-01-10T06:11:58;15.40;;;7.87;;
4704;SDS011;2366;51.332;6.610;2024-01-10T06:14:23;11.00;;;6.13;;
4704;SDS011;2366;51.332;6.610;2024-01-10T06:16:48;12.13;;;6.30;;
4704;SDS011;2366;51.332;6.610;2024-01-10T06:19:14;10.57;;;6.53;;
4704;SDS011;2366;51.332;6.610;2024-01-10T06:21:39;14.23;;;7.50;;
4704;SDS011;2366;51.332;6.610;2024-01-10T06:24:05;13.20;;;8.30;;
4704;SDS011;2366;51.332;6.610;2024-01-10T06:26:30;13.40;;;8.37;;
4704;SDS011;2366;51.332;6.610;2024-01-10T06:28:56;14.10;;;7.70;;
4704;SDS011;2366;51.332;6.610;2024-01-10T06:31:21;14.30;;;6.67;;
4704;SDS011;2366;51.332;6.610;2024-01-10T06:33:46;17.53;;;7.17;;
4704;SDS011;2366;51.332;6.610;2024-01-10T06:36:12;12.87;;;7.40;;
4704;SDS011;2366;51.332;6.610;2024-01-10T06:38:38;12.65;;;7.00;;
4704;SDS011;2366;51.332;6.610;2024-01-10T06:41:08;12.82;;;7.68;;
4704;SDS011;2366;51.332;6.610;2024-01-10T06:43:34;15.98;;;8.30;;
4704;SDS011;2366;51.332;6.610;2024-01-10T06:45:59;12.80;;;7.67;;
4704;SDS011;2366;51.332;6.610;2024-01-10T06:48:25;12.10;;;8.10;;
4704;SDS011;2366;51.332;6.610;2024-01-10T06:50:50;15.47;;;8.90;;
4704;SDS011;2366;51.332;6.610;2024-01-10T06:53:16;17.97;;;9.10;;
4704;SDS011;2366;51.332;6.610;2024-01-10T06:55:41;14.50;;;8.70;;
4704;SDS011;2366;51.332;6.610;2024-01-10T06:58:07;11.87;;;8.20;;
4704;SDS011;2366;51.332;6.610;2024-01-10T07:00:32;13.67;;;8.17;;
4704;SDS011;2366;51.332;6.610;2024-01-10T07:03:00;15.33;;;8.57;;
4704;SDS011;2366;51.332;6.610;2024-01-10T07:05:27;17.10;;;8.05;;
4704;SDS011;2366;51.332;6.610;2024-01-10T07:07:53;11.15;;;6.78;;
4704;SDS011;2366;51.332;6.610;2024-01-10T07:10:18;13.93;;;7.73;;
4704;SDS011;2366;51.332;6.610;2024-01-10T07:12:44;13.67;;;8.70;;
4704;SDS011;2366;51.332;6.610;2024-01-10T07:15:09;19.43;;;8.50;;
4704;SDS011;2366;51.332;6.610;2024-01-10T07:17:35;21.63;;;9.70;;
4704;SDS011;2366;51.332;6.610;2024-01-10T07:20:00;14.33;;;8.47;;
4704;SDS011;2366;51.332;6.610;2024-01-10T07:22:25;12.07;;;6.60;;
4704;SDS011;2366;51.332;6.610;2024-01-10T07:24:51;17.10;;;9.25;;
4704;SDS011;2366;51.332;6.610;2024-01-10T07:27:17;13.40;;;8.57;;
4704;SDS011;2366;51.332;6.610;2024-01-10T07:29:43;15.15;;;9.05;;
4704;SDS011;2366;51.332;6.610;2024-01-10T07:32:08;19.00;;;9.50;;
4704;SDS011;2366;51.332;6.610;2024-01-10T07:34:37;13.02;;;8.05;;
4704;SDS011;2366;51.332;6.610;2024-01-10T07:37:02;15.30;;;7.93;;
4704;SDS011;2366;51.332;6.610;2024-01-10T07:39:28;18.70;;;9.43;;
4704;SDS011;2366;51.332;6.610;2024-01-10T07:41:54;14.80;;;8.97;;
4704;SDS011;2366;51.332;6.610;2024-01-10T07:44:19;13.67;;;9.17;;
4704;SDS011;2366;51.332;6.610;2024-01-10T07:46:44;16.30;;;9.00;;
4704;SDS011;2366;51.332;6.610;2024-01-10T07:49:10;17.00;;;9.50;;
4704;SDS011;2366;51.332;6.610;2024-01-10T07:51:35;26.43;;;9.07;;
4704;SDS011;2366;51.332;6.610;2024-01-10T07:54:01;14.03;;;9.13;;
4704;SDS011;2366;51.332;6.610;2024-01-10T07:56:26;15.00;;;7.90;;
4704;SDS011;2366;51.332;6.610;2024-01-10T07:58:52;18.90;;;10.37;;
4704;SDS011;2366;51.332;6.610;2024-01-10T08:01:17;15.67;;;8.83;;
4704;SDS011;2366;51.332;6.610;2024-01-10T08:03:43;18.70;;;9.30;;
4704;SDS011;2366;51.332;6.610;2024-01-10T08:06:08;18.90;;;10.17;;
4704;SDS011;2366;51.332;6.610;2024-01-10T08:08:35;16.20;;;10.15;;
4704;SDS011;2366;51.332;6.610;2024-01-10T08:11:01;21.20;;;9.10;;
4704;SDS011;2366;51.332;6.610;2024-01-10T08:13:27;19.07;;;9.27;;
4704;SDS011;2366;51.332;6.610;2024-01-10T08:15:52;15.97;;;8.57;;
4704;SDS011;2366;51.332;6.610;2024-01-10T08:18:18;18.57;;;9.90;;
4704;SDS011;2366;51.332;6.610;2024-01-10T08:20:44;15.73;;;8.20;;
4704;SDS011;2366;51.332;6.610;2024-01-10T08:23:09;17.37;;;9.27;;
4704;SDS011;2366;51.332;6.610;2024-01-10T08:25:34;13.33;;;8.80;;
4704;SDS011;2366;51.332;6.610;2024-01-10T08:28:00;16.07;;;8.60;;
4704;SDS011;2366;51.332;6.610;2024-01-10T08:30:25;14.97;;;8.80;;
4704;SDS011;2366;51.332;6.610;2024-01-10T08:32:51;14.53;;;8.73;;
4704;SDS011;2366;51.332;6.610;2024-01-10T08:35:17;15.40;;;8.47;;
4704;SDS011;2366;51.332;6.610;2024-01-10T08:37:44;17.30;;;11.20;;
4704;SDS011;2366;51.332;6.610;2024-01-10T08:40:10;20.53;;;11.03;;
4704;SDS011;2366;51.332;6.610;2024-01-10T08:42:37;18.70;;;10.63;;
4704;SDS011;2366;51.332;6.610;2024-01-10T08:45:03;16.75;;;9.77;;
4704;SDS011;2366;51.332;6.610;2024-01-10T08:47:29;21.83;;;10.95;;
4704;SDS011;2366;51.332;6.610;2024-01-10T08:49:57;12.68;;;10.35;;
4704;SDS011;2366;51.332;6.610;2024-01-10T08:52:23;19.15;;;10.57;;
4704;SDS011;2366;51.332;6.610;2024-01-10T08:54:48;19.80;;;10.90;;
4704;SDS011;2366;51.332;6.610;2024-01-10T08:57:14;29.80;;;12.70;;
4704;SDS011;2366;51.332;6.610;2024-01-10T08:59:42;29.23;;;11.57;;
4704;SDS011;2366;51.332;6.610;2024-01-10T09:02:08;20.40;;;11.98;;
4704;SDS011;2366;51.332;6.610;2024-01-10T09:04:33;17.47;;;11.13;;
4704;SDS011;2366;51.332;6.610;2024-01-10T09:06:58;20.93;;;11.53;;
4704;SDS011;2366;51.332;6.610;2024-01-10T09:09:24;21.63;;;12.00;;
4704;SDS011;2366;51.332;6.610;2024-01-10T09:11:49;22.73;;;12.07;;
4704;SDS011;2366;51.332;6.610;2024-01-10T09:14:15;19.10;;;12.00;;
4704;SDS011;2366;51.332;6.610;2024-01-10T09:16:41;18.95;;;13.15;;
4704;SDS011;2366;51.332;6.610;2024-01-10T09:19:06;23.47;;;13.07;;
4704;SDS011;2366;51.332;6.610;2024-01-10T09:21:32;21.90;;;12.60;;
4704;SDS011;2366;51.332;6.610;2024-01-10T09:23:57;18.90;;;12.80;;
4704;SDS011;2366;51.332;6.610;2024-01-10T09:26:23;19.47;;;13.67;;
4704;SDS011;2366;51.332;6.610;2024-01-10T09:28:48;22.63;;;10.80;;
4704;SDS011;2366;51.332;6.610;2024-01-10T09:31:14;24.70;;;12.57;;
4704;SDS011;2366;51.332;6.610;2024-01-10T09:33:39;24.30;;;11.27;;
4704;SDS011;2366;51.332;6.610;2024-01-10T09:36:05;17.42;;;10.75;;
4704;SDS011;2366;51.332;6.610;2024-01-10T09:38:34;19.33;;;11.10;;
4704;SDS011;2366;51.332;6.610;2024-01-10T09:41:03;23.63;;;11.75;;
4704;SDS011;2366;51.332;6.610;2024-01-10T09:43:30;20.80;;;11.73;;
4704;SDS011;2366;51.332;6.610;2024-01-10T09:45:55;18.00;;;10.90;;
4704;SDS011;2366;51.332;6.610;2024-01-10T09:48:23;19.67;;;10.85;;
4704;SDS011;2366;51.332;6.610;2024-01-10T09:50:50;17.85;;;11.10;;
4704;SDS011;2366;51.332;6.610;2024-01-10T09:53:25;23.40;;;11.07;;
4704;SDS011;2366;51.332;6.610;2024-01-10T09:55:51;20.90;;;12.27;;
4704;SDS011;2366;51.332;6.610;2024-01-10T09:58:17;19.97;;;10.77;;
4704;SDS011;2366;51.332;6.610;2024-01-10T10:00:43;19.47;;;12.17;;
4704;SDS011;2366;51.332;6.610;2024-01-10T10:03:09;20.43;;;11.10;;
4704;SDS011;2366;51.332;6.610;2024-01-10T10:05:38;19.55;;;10.73;;
4704;SDS011;2366;51.332;6.610;2024-01-10T10:08:07;19.15;;;11.35;;
4704;SDS011;2366;51.332;6.610;2024-01-10T10:10:34;25.35;;;11.15;;
4704;SDS011;2366;51.332;6.610;2024-01-10T10:13:00;19.13;;;11.60;;
4704;SDS011;2366;51.332;6.610;2024-01-10T10:15:25;21.37;;;11.80;;
4704;SDS011;2366;51.332;6.610;2024-01-10T10:17:54;18.00;;;10.85;;
4704;SDS011;2366;51.332;6.610;2024-01-10T10:20:24;17.70;;;11.40;;
4704;SDS011;2366;51.332;6.610;2024-01-10T10:25:44;21.98;;;12.15;;
4704;SDS011;2366;51.332;6.610;2024-01-10T10:28:12;18.00;;;10.45;;
4704;SDS011;2366;51.332;6.610;2024-01-10T10:30:37;19.57;;;11.07;;
4704;SDS011;2366;51.332;6.610;2024-01-10T10:33:03;28.57;;;11.63;;
4704;SDS011;2366;51.332;6.610;2024-01-10T10:35:29;47.17;;;12.60;;
4704;SDS011;2366;51.332;6.610;2024-01-10T10:37:55;23.53;;;12.63;;
4704;SDS011;2366;51.332;6.610;2024-01-10T10:40:21;25.80;;;12.73;;
4704;SDS011;2366;51.332;6.610;2024-01-10T10:42:48;27.60;;;12.60;;
4704;SDS011;2366;51.332;6.610;2024-01-10T10:45:19;23.17;;;12.57;;
4704;SDS011;2366;51.332;6.610;2024-01-10T10:47:50;23.90;;;12.00;;
4704;SDS011;2366;51.332;6.610;2024-01-10T10:50:22;24.25;;;12.98;;
4704;SDS011;2366;51.332;6.610;2024-01-10T10:52:49;23.95;;;12.07;;
4704;SDS011;2366;51.332;6.610;2024-01-10T10:55:17;21.10;;;12.13;;
4704;SDS011;2366;51.332;6.610;2024-01-10T10:57:46;20.98;;;12.18;;
4704;SDS011;2366;51.332;6.610;2024-01-10T11:00:14;21.13;;;11.77;;
4704;SDS011;2366;51.332;6.610;2024-01-10T11:02:40;23.63;;;11.85;;
4704;SDS011;2366;51.332;6.610;2024-01-10T11:05:06;16.50;;;11.40;;
4704;SDS011;2366;51.332;6.610;2024-01-10T11:07:37;23.52;;;12.77;;
4704;SDS011;2366;51.332;6.610;2024-01-10T11:10:04;19.63;;;11.23;;
4704;SDS011;2366;51.332;6.610;2024-01-10T11:18:33;19.60;;;11.15;;
4704;SDS011;2366;51.332;6.610;2024-01-10T11:21:14;19.20;;;11.25;;
4704;SDS011;2366;51.332;6.610;2024-01-10T11:23:46;19.60;;;11.52;;
4704;SDS011;2366;51.332;6.610;2024-01-10T11:26:14;18.05;;;11.63;;
4704;SDS011;2366;51.332;6.610;2024-01-10T11:28:40;21.20;;;12.15;;
4704;SDS011;2366;51.332;6.610;2024-01-10T11:31:07;20.90;;;11.18;;
4704;SDS011;2366;51.332;6.610;2024-01-10T11:33:34;26.30;;;11.82;;
4704;SDS011;2366;51.332;6.610;2024-01-10T11:36:15;24.20;;;11.60;;
4704;SDS011;2366;51.332;6.610;2024-01-10T11:41:27;18.42;;;11.80;;
4704;SDS011;2366;51.332;6.610;2024-01-10T11:49:10;23.13;;;12.13;;
4704;SDS011;2366;51.332;6.610;2024-01-10T11:51:37;20.42;;;11.35;;
4704;SDS011;2366;51.332;6.610;2024-01-10T11:54:02;17.42;;;10.65;;
4704;SDS011;2366;51.332;6.610;2024-01-10T11:56:46;19.20;;;12.07;;
4704;SDS011;2366;51.332;6.610;2024-01-10T11:59:12;18.80;;;12.20;;
4704;SDS011;2366;51.332;6.610;2024-01-10T12:01:41;25.00;;;12.15;;
4704;SDS011;2366;51.332;6.610;2024-01-10T12:04:07;18.00;;;10.85;;
4704;SDS011;2366;51.332;6.610;2024-01-10T12:06:34;20.00;;;11.75;;
4704;SDS011;2366;51.332;6.610;2024-01-10T12:09:03;18.88;;;11.77;;
4704;SDS011;2366;51.332;6.610;2024-01-10T12:11:37;24.40;;;12.45;;
4704;SDS011;2366;51.332;6.610;2024-01-10T12:14:04;22.95;;;12.80;;
4704;SDS011;2366;51.332;6.610;2024-01-10T12:16:32;21.23;;;12.50;;
4704;SDS011;2366;51.332;6.610;2024-01-10T12:18:57;22.58;;;12.65;;
4704;SDS011;2366;51.332;6.610;2024-01-10T12:21:22;22.27;;;11.97;;
4704;SDS011;2366;51.332;6.610;2024-01-10T12:23:48;25.73;;;12.00;;
4704;SDS011;2366;51.332;6.610;2024-01-10T12:26:13;20.77;;;12.50;;
4704;SDS011;2366;51.332;6.610;2024-01-10T12:28:39;18.90;;;12.60;;
4704;SDS011;2366;51.332;6.610;2024-01-10T12:31:07;27.80;;;12.50;;
4704;SDS011;2366;51.332;6.610;2024-01-10T12:33:33;21.10;;;11.90;;
4704;SDS011;2366;51.332;6.610;2024-01-10T12:36:06;20.83;;;11.98;;
4704;SDS011;2366;51.332;6.610;2024-01-10T12:38:36;26.25;;;12.40;;
4704;SDS011;2366;51.332;6.610;2024-01-10T12:41:03;22.40;;;11.85;;
4704;SDS011;2366;51.332;6.610;2024-01-10T12:43:30;26.83;;;12.95;;
4704;SDS011;2366;51.332;6.610;2024-01-10T12:46:05;24.55;;;10.95;;
4704;SDS011;2366;51.332;6.610;2024-01-10T12:48:32;18.13;;;12.60;;
4704;SDS011;2366;51.332;6.610;2024-01-10T12:51:01;23.38;;;12.65;;
4704;SDS011;2366;51.332;6.610;2024-01-10T12:53:30;18.98;;;11.65;;
4704;SDS011;2366;51.332;6.610;2024-01-10T12:55:57;17.25;;;11.52;;
4704;SDS011;2366;51.332;6.610;2024-01-10T12:58:22;21.67;;;10.87;;
4704;SDS011;2366;51.332;6.610;2024-01-10T13:00:48;25.77;;;12.70;;
4704;SDS011;2366;51.332;6.610;2024-01-10T13:03:13;23.73;;;12.80;;
4704;SDS011;2366;51.332;6.610;2024-01-10T13:05:39;23.57;;;11.40;;
4704;SDS011;2366;51.332;6.610;2024-01-10T13:08:04;20.33;;;12.10;;
4704;SDS011;2366;51.332;6.610;2024-01-10T13:10:31;21.08;;;12.45;;
4704;SDS011;2366;51.332;6.610;2024-01-10T13:12:56;18.10;;;10.57;;
4704;SDS011;2366;51.332;6.610;2024-01-10T13:15:21;18.83;;;11.63;;
4704;SDS011;2366;51.332;6.610;2024-01-10T13:17:47;23.50;;;12.73;;
4704;SDS011;2366;51.332;6.610;2024-01-10T13:20:12;24.87;;;13.03;;
4704;SDS011;2366;51.332;6.610;2024-01-10T13:22:38;19.02;;;11.73;;
4704;SDS011;2366;51.332;6.610;2024-01-10T13:25:04;23.47;;;12.20;;
4704;SDS011;2366;51.332;6.610;2024-01-10T13:27:30;19.90;;;10.90;;
4704;SDS011;2366;51.332;6.610;2024-01-10T13:29:55;18.73;;;11.53;;
4704;SDS011;2366;51.332;6.610;2024-01-10T13:32:20;28.03;;;12.67;;
4704;SDS011;2366;51.332;6.610;2024-01-10T13:34:46;25.90;;;12.67;;
4704;SDS011;2366;51.332;6.610;2024-01-10T13:37:11;20.10;;;12.33;;
4704;SDS011;2366;51.332;6.610;2024-01-10T13:39:37;18.17;;;11.02;;
4704;SDS011;2366;51.332;6.610;2024-01-10T13:42:05;23.02;;;12.50;;
4704;SDS011;2366;51.332;6.610;2024-01-10T13:44:31;20.63;;;12.40;;
4704;SDS011;2366;51.332;6.610;2024-01-10T13:46:56;25.50;;;14.47;;
4704;SDS011;2366;51.332;6.610;2024-01-10T13:49:21;24.23;;;13.00;;
4704;SDS011;2366;51.332;6.610;2024-01-10T13:51:47;25.13;;;13.47;;
4704;SDS011;2366;51.332;6.610;2024-01-10T13:54:12;26.80;;;13.83;;
4704;SDS011;2366;51.332;6.610;2024-01-10T13:56:37;29.40;;;16.10;;
4704;SDS011;2366;51.332;6.610;2024-01-10T13:59:04;25.65;;;14.85;;
4704;SDS011;2366;51.332;6.610;2024-01-10T14:01:30;31.97;;;16.23;;
4704;SDS011;2366;51.332;6.610;2024-01-10T14:03:55;29.50;;;17.03;;
4704;SDS011;2366;51.332;6.610;2024-01-10T14:06:21;26.83;;;15.93;;
4704;SDS011;2366;51.332;6.610;2024-01-10T14:08:47;35.27;;;17.90;;
4704;SDS011;2366;51.332;6.610;2024-01-10T14:11:14;44.83;;;18.27;;
4704;SDS011;2366;51.332;6.610;2024-01-10T14:13:39;27.77;;;17.07;;
4704;SDS011;2366;51.332;6.610;2024-01-10T14:16:05;35.60;;;19.77;;
4704;SDS011;2366;51.332;6.610;2024-01-10T14:18:30;34.73;;;23.00;;
4704;SDS011;2366;51.332;6.610;2024-01-10T14:20:55;33.37;;;16.57;;
4704;SDS011;2366;51.332;6.610;2024-01-10T14:23:21;31.83;;;15.23;;
4704;SDS011;2366;51.332;6.610;2024-01-10T14:25:47;32.57;;;19.13;;
4704;SDS011;2366;51.332;6.610;2024-01-10T14:28:12;34.43;;;17.23;;
4704;SDS011;2366;51.332;6.610;2024-01-10T14:30:39;31.35;;;16.50;;
4704;SDS011;2366;51.332;6.610;2024-01-10T14:33:04;26.83;;;16.98;;
4704;SDS011;2366;51.332;6.610;2024-01-10T14:35:30;27.73;;;15.80;;
4704;SDS011;2366;51.332;6.610;2024-01-10T14:37:55;36.17;;;17.27;;
4704;SDS011;2366;51.332;6.610;2024-01-10T14:40:21;36.03;;;17.23;;
4704;SDS011;2366;51.332;6.610;2024-01-10T14:42:49;36.08;;;17.92;;
4704;SDS011;2366;51.332;6.610;2024-01-10T14:45:15;32.45;;;18.02;;
4704;SDS011;2366;51.332;6.610;2024-01-10T14:47:40;29.27;;;16.53;;
4704;SDS011;2366;51.332;6.610;2024-01-10T14:50:06;34.43;;;17.13;;
4704;SDS011;2366;51.332;6.610;2024-01-10T14:52:32;32.47;;;15.43;;
4704;SDS011;2366;51.332;6.610;2024-01-10T14:54:57;24.33;;;16.43;;
4704;SDS011;2366;51.332;6.610;2024-01-10T14:57:23;32.50;;;17.77;;
4704;SDS011;2366;51.332;6.610;2024-01-10T14:59:48;31.33;;;16.80;;
4704;SDS011;2366;51.332;6.610;2024-01-10T15:02:14;35.83;;;18.87;;
4704;SDS011;2366;51.332;6.610;2024-01-10T15:04:41;35.55;;;18.25;;
4704;SDS011;2366;51.332;6.610;2024-01-10T15:07:07;30.07;;;17.00;;